Time;durP1;ratioP1;P1;durP2;ratioP2;P2;SDS_P1;SDS_P2;PMS_P1;PMS_P2;Temp;Humidity;BMP_temperature;BMP_pressure;BME280_temperature;BME280_humidity;BME280_pressure;Samples;Min_cycle;Max_cycle;Signal;HPM_P1;HPM_P2
2023/06/10 07:01:21;;;;;;;1.52;1.42;;;28.00;99.90;32.40;101297.00;;;;6309126;22;20180;-70
2023/06/10 07:03:49;;;;;;;1.38;0.90;;;28.90;99.90;31.40;101327.00;;;;6280455;22;20194;-69
2023/06/10 07:06:15;;;;;;;0.77;0.77;;;28.40;99.90;32.70;101316.00;;;;6281803;22;20143;-70
2023/06/10 07:08:50;;;;;;;2.58;2.38;;;28.90;99.90;31.00;101330.00;;;;6281614;22;20164;-68
2023/06/10 07:11:21;;;;;;;1.63;1.52;;;28.80;99.90;32.10;101323.00;;;;6257052;22;20183;-69
2023/06/10 07:13:55;;;;;;;1.45;1.35;;;28.60;99.90;30.60;101343.00;;;;6308945;22;20137;-68
2023/06/10 07:16:21;;;;;;;2.40;1.73;;;28.50;99.90;30.90;101338.00;;;;6308181;22;20569;-66
2023/06/10 07:18:52;;;;;;;2.88;2.20;;;28.10;99.90;30.40;101349.00;;;;6281833;22;20148;-66
2023/06/10 07:21:19;;;;;;;3.35;1.70;;;27.80;99.90;31.10;101341.00;;;;6255839;22;20494;-67
2023/06/10 07:23:58;;;;;;;5.30;1.33;;;27.80;99.90;31.20;101349.00;;;;6308264;22;20148;-69
2023/06/10 07:26:25;;;;;;;2.10;2.00;;;28.10;99.90;32.80;101319.00;;;;6282182;22;20150;-68
2023/06/10 07:28:54;;;;;;;0.75;0.60;;;28.80;99.90;33.40;101303.00;;;;6281659;22;20137;-69
2023/06/10 07:31:41;;;;;;;0.40;0.40;;;29.60;99.90;34.80;101339.00;;;;6309272;22;20155;-78
2023/06/10 07:34:07;;;;;;;3.00;0.68;;;30.40;99.90;35.20;101328.00;;;;6255986;22;20160;-70
2023/06/10 07:36:42;;;;;;;1.05;1.05;;;31.10;99.90;33.80;101317.00;;;;6281788;22;20484;-71
2023/06/10 07:39:28;;;;;;;2.45;1.20;;;30.50;99.90;32.80;101323.00;;;;6258190;22;20152;-71
2023/06/10 07:42:01;;;;;;;2.85;2.60;;;30.00;99.90;32.70;101318.00;;;;6308954;22;20640;-71
2023/06/10 07:44:35;;;;;;;2.90;2.50;;;30.00;99.90;31.90;101329.00;;;;6281449;22;20140;-70
2023/06/10 07:47:04;;;;;;;1.10;1.05;;;29.90;99.90;33.30;101317.00;;;;6282561;22;20133;-71
2023/06/10 07:49:41;;;;;;;0.20;0.20;;;29.90;99.90;33.40;101320.00;;;;6308323;22;20141;-71
2023/06/10 07:52:36;;;;;;;1.25;1.17;;;29.80;99.90;35.50;101329.00;;;;6256029;22;20175;-69
2023/06/10 07:55:39;;;;;;;2.00;1.65;;;31.20;99.90;31.70;101362.00;;;;6282793;22;20152;-70
2023/06/10 07:58:35;;;;;;;2.08;1.45;;;30.40;99.90;33.80;101345.00;;;;6281650;22;20160;-71
2023/06/10 08:01:03;;;;;;;1.08;0.63;;;30.70;99.90;35.30;101301.00;;;;6276707;22;20628;-70
2023/06/10 08:03:51;;;;;;;1.42;1.33;;;31.10;99.90;36.10;101295.00;;;;6276141;22;20161;-70
2023/06/10 08:06:29;;;;;;;0.70;0.65;;;31.70;99.90;34.40;101335.00;;;;6277982;22;20152;-69
2023/06/10 08:08:55;;;;;;;2.10;1.60;;;31.60;99.90;36.80;101331.00;;;;6276810;22;20145;-70
2023/06/10 08:11:24;;;;;;;2.40;0.50;;;32.40;99.90;35.20;101343.00;;;;6276202;22;20207;-71
2023/06/10 08:13:51;;;;;;;2.22;1.80;;;32.20;99.90;35.20;101345.00;;;;6276552;22;20137;-71
2023/06/10 08:17:00;;;;;;;1.77;1.67;;;32.00;99.90;36.50;101376.00;;;;6277584;22;20145;-72
2023/06/10 08:19:50;;;;;;;0.30;0.30;;;32.70;99.90;35.70;101378.00;;;;6253715;22;20187;-71
2023/06/10 08:22:46;;;;;;;0.35;0.35;;;32.70;99.90;36.90;101372.00;;;;6277601;22;20145;-72
2023/06/10 08:25:24;;;;;;;0.20;0.20;;;32.80;99.90;37.80;101372.00;;;;6276074;22;20148;-71
2023/06/10 08:27:57;;;;;;;0.80;0.80;;;33.50;99.90;33.90;101438.00;;;;6250808;22;20160;-72
2023/06/10 08:30:26;;;;;;;1.88;1.77;;;32.30;99.90;34.60;101420.00;;;;6250221;22;20218;-72
2023/06/10 08:33:30;;;;;;;1.02;0.95;;;31.60;99.90;35.10;101436.00;;;;6275786;22;20173;-72
2023/06/10 08:36:18;;;;;;;1.83;1.40;;;31.80;99.90;34.00;101443.00;;;;6275300;22;20222;-72
2023/06/10 08:38:59;;;;;;;2.42;2.22;;;31.00;99.90;33.90;101434.00;;;;6250618;22;20179;-72
2023/06/10 08:41:36;;;;;;;3.30;2.63;;;30.90;99.90;34.30;101435.00;;;;6275829;22;20137;-72
2023/06/10 08:44:33;;;;;;;2.03;1.92;;;31.20;99.90;34.90;101438.00;;;;6250480;22;20239;-72
2023/06/10 08:47:15;;;;;;;0.70;0.70;;;31.20;99.90;36.00;101420.00;;;;6250515;22;20179;-72
2023/06/10 08:49:46;;;;;;;0.45;0.45;;;31.90;99.90;36.30;101405.00;;;;6250656;22;20157;-72
2023/06/10 08:52:18;;;;;;;0.85;0.85;;;32.50;99.90;36.00;101416.00;;;;6275841;22;20172;-72
2023/06/10 08:55:12;;;;;;;0.47;0.47;;;32.70;99.90;36.70;101406.00;;;;6275849;22;20501;-71
2023/06/10 08:57:41;;;;;;;1.45;0.93;;;33.00;99.90;37.70;101419.00;;;;6250019;22;20168;-72
2023/06/10 09:00:09;;;;;;;0.10;0.10;;;33.70;99.90;37.10;101422.00;;;;6275095;22;20256;-72
2023/06/10 09:02:36;;;;;;;0.73;0.73;;;33.70;99.90;36.30;101432.00;;;;6273966;22;20153;-71
2023/06/10 09:05:05;;;;;;;4.07;0.65;;;33.50;99.80;35.50;101425.00;;;;6274448;22;20149;-72
2023/06/10 09:07:45;;;;;;;0.35;0.35;;;32.80;99.90;37.10;101413.00;;;;6275544;22;20148;-71
2023/06/10 09:10:12;;;;;;;0.93;0.88;;;33.30;99.90;37.80;101408.00;;;;6250021;22;20149;-72
2023/06/10 09:12:55;;;;;;;0.40;0.40;;;33.80;99.70;38.60;101409.00;;;;6275373;22;20173;-72
2023/06/10 09:15:29;;;;;;;2.72;1.83;;;34.50;99.00;38.30;101419.00;;;;6275254;22;20153;-72
2023/06/10 09:17:55;;;;;;;0.08;0.08;;;34.50;99.00;39.40;101417.00;;;;6275914;22;20149;-70
2023/06/10 09:20:21;;;;;;;0.40;0.40;;;35.10;98.30;38.70;101385.00;;;;6275884;22;20480;-70
2023/06/10 09:22:49;;;;;;;0.10;0.10;;;35.10;98.20;39.00;101378.00;;;;6250208;22;20235;-70
2023/06/10 09:25:16;;;;;;;1.05;0.77;;;35.20;97.30;37.30;101395.00;;;;6276108;22;20207;-74
2023/06/10 09:27:54;;;;;;;0.85;0.85;;;34.50;97.30;35.90;101366.00;;;;6275340;22;20203;-74
2023/06/10 09:30:31;;;;;;;3.20;1.15;;;34.00;97.00;35.70;101393.00;;;;6275102;22;20172;-75
2023/06/10 09:33:00;;;;;;;8.57;5.55;;;33.50;96.50;37.70;101384.00;;;;6275084;22;20601;-73
2023/06/10 09:35:29;;;;;;;0.98;0.47;;;33.70;96.30;37.60;101389.00;;;;6275769;22;20142;-74
2023/06/10 09:37:58;;;;;;;3.17;2.95;;;34.00;96.70;34.20;101408.00;;;;6276748;22;20569;-74
2023/06/10 09:40:24;;;;;;;0.50;0.50;;;33.10;96.20;36.50;101398.00;;;;6277343;22;20183;-74
2023/06/10 09:43:00;;;;;;;3.00;1.67;;;33.00;96.90;34.90;101416.00;;;;6250131;22;20157;-74
2023/06/10 09:45:31;;;;;;;1.48;1.08;;;32.90;96.70;36.90;101403.00;;;;6274975;22;20137;-73
2023/06/10 09:47:57;;;;;;;3.33;2.00;;;33.00;96.60;36.90;101388.00;;;;6249995;22;20608;-74
2023/06/10 09:50:23;;;;;;;4.03;1.95;;;33.30;96.30;37.10;101365.00;;;;6276972;22;20137;-74
2023/06/10 09:52:50;;;;;;;0.30;0.30;;;33.40;96.40;38.50;101381.00;;;;6275259;22;20177;-75
2023/06/10 09:55:19;;;;;;;0.22;0.22;;;34.00;96.10;38.40;101387.00;;;;6275772;22;20145;-74
2023/06/10 09:57:54;;;;;;;1.38;1.02;;;34.50;95.60;37.50;101393.00;;;;6276787;22;20137;-76
2023/06/10 10:00:22;;;;;;;4.22;2.92;;;34.50;95.10;36.90;101402.00;;;;6274889;22;20175;-74
2023/06/10 10:02:51;;;;;;;2.47;2.15;;;33.50;95.70;37.10;101394.00;;;;6249711;22;20153;-74
2023/06/10 10:05:22;;;;;;;0.52;0.52;;;33.40;95.70;37.90;101390.00;;;;6275640;22;20141;-74
2023/06/10 10:07:56;;;;;;;0.50;0.50;;;33.70;96.10;38.80;101343.00;;;;6275219;22;20324;-72
2023/06/10 10:10:26;;;;;;;0.80;0.80;;;34.40;94.90;38.70;101381.00;;;;6275488;22;20141;-75
2023/06/10 10:12:57;;;;;;;0.55;0.55;;;34.60;94.70;39.10;101385.00;;;;6274976;22;20177;-74
2023/06/10 10:15:41;;;;;;;1.60;1.50;;;35.30;94.20;38.20;101379.00;;;;6275114;22;20138;-75
2023/06/10 10:18:13;;;;;;;1.45;1.20;;;35.10;92.20;38.10;101382.00;;;;6275193;22;20172;-74
2023/06/10 10:33:33;;;;;;;5.05;3.72;;;33.30;92.70;32.90;101396.00;;;;5070140;28;20934;-73
2023/06/10 10:36:04;;;;;;;1.17;1.15;;;31.80;93.70;35.90;101388.00;;;;5049397;28;20182;-74
2023/06/10 10:38:34;;;;;;;0.88;0.88;;;32.10;94.60;38.30;101370.00;;;;5048787;28;20704;-74
2023/06/10 10:41:13;;;;;;;3.63;3.33;;;33.80;93.20;37.70;101362.00;;;;5049373;28;20273;-74
2023/06/10 10:43:39;;;;;;;0.80;0.80;;;34.40;92.10;38.00;101370.00;;;;5049810;28;20582;-74
2023/06/10 10:46:13;;;;;;;1.17;1.10;;;34.50;91.90;36.60;101378.00;;;;5032660;28;20174;-74
2023/06/10 10:48:43;;;;;;;0.77;0.77;;;33.70;91.70;37.60;101365.00;;;;5049516;28;20174;-74
2023/06/10 10:51:09;;;;;;;1.75;1.65;;;33.90;92.10;36.50;101373.00;;;;5049100;28;20221;-74
2023/06/10 10:53:39;;;;;;;0.95;0.65;;;34.20;91.50;38.10;101366.00;;;;5032036;28;20248;-74
2023/06/10 10:56:34;;;;;;;0.70;0.70;;;34.40;90.90;38.90;101349.00;;;;5048982;28;20179;-73
2023/06/10 10:59:05;;;;;;;2.00;1.90;;;35.10;90.70;35.90;101363.00;;;;5048994;28;20269;-73
2023/06/10 11:01:42;;;;;;;1.45;1.35;;;34.30;90.00;37.50;101341.00;;;;5056389;28;20183;-73
2023/06/10 11:04:21;;;;;;;1.27;1.17;;;34.30;90.60;39.10;101347.00;;;;5075104;28;20178;-73
2023/06/10 11:06:54;;;;;;;3.20;2.65;;;34.90;90.40;34.90;101373.00;;;;5038535;28;20208;-73
2023/06/10 11:09:28;;;;;;;1.52;1.42;;;33.40;90.00;37.30;101349.00;;;;5048455;28;20182;-74
2023/06/10 11:12:00;;;;;;;1.08;1.02;;;33.60;90.30;37.60;101343.00;;;;5048325;28;20645;-74
2023/06/10 11:14:31;;;;;;;4.20;1.90;;;34.30;88.50;36.00;101326.00;;;;5035976;28;20214;-73
2023/06/10 11:16:59;;;;;;;1.88;1.77;;;34.10;87.50;36.20;101362.00;;;;5063834;28;20179;-73
2023/06/10 11:19:46;;;;;;;1.75;1.65;;;34.00;87.50;36.70;101346.00;;;;5040140;28;20275;-73
2023/06/10 11:22:22;;;;;;;0.75;0.75;;;33.50;89.20;37.90;101335.00;;;;5046419;28;20557;-73
2023/06/10 11:25:14;;;;;;;0.80;0.80;;;34.00;89.10;37.90;101343.00;;;;5048553;28;20174;-73
2023/06/10 11:27:40;;;;;;;2.00;1.65;;;34.50;87.50;35.80;101341.00;;;;5037410;28;20170;-73
2023/06/10 11:30:10;;;;;;;2.45;2.15;;;34.10;87.10;37.10;101341.00;;;;5031567;28;20278;-73
2023/06/10 11:32:36;;;;;;;0.88;0.88;;;34.10;86.50;36.60;101347.00;;;;5039319;28;20243;-73
2023/06/10 11:35:08;;;;;;;1.20;1.20;;;33.90;86.70;37.00;101324.00;;;;5048393;28;20210;-73
2023/06/10 11:37:47;;;;;;;1.90;1.75;;;34.00;86.80;36.90;101343.00;;;;5049283;28;20624;-73
2023/06/10 11:40:14;;;;;;;1.25;1.10;;;34.00;85.50;36.70;101334.00;;;;5036637;28;20650;-73
2023/06/10 11:42:42;;;;;;;0.82;0.82;;;34.00;85.20;36.00;101333.00;;;;5045897;28;20186;-73
2023/06/10 11:45:08;;;;;;;2.10;1.90;;;33.60;84.80;34.80;101329.00;;;;5034591;28;20179;-73
2023/06/10 11:48:10;;;;;;;1.58;1.48;;;33.00;86.10;37.10;101342.00;;;;5034238;28;20193;-72
2023/06/10 11:50:37;;;;;;;0.50;0.50;;;33.80;86.30;37.40;101333.00;;;;5034114;28;20192;-73
2023/06/10 11:53:11;;;;;;;0.20;0.20;;;33.80;86.80;37.20;101337.00;;;;5018408;28;20201;-73
2023/06/10 11:55:55;;;;;;;1.48;1.38;;;34.10;85.70;36.50;101307.00;;;;5035178;28;20262;-73
2023/06/10 11:58:22;;;;;;;1.67;1.58;;;33.90;84.90;36.10;101334.00;;;;5034135;28;20179;-73
2023/06/10 12:00:57;;;;;;;3.13;2.47;;;33.50;84.70;36.40;101328.00;;;;5034654;28;20183;-74
2023/06/10 12:03:27;;;;;;;0.30;0.30;;;33.10;84.40;36.90;101338.00;;;;5025199;28;20195;-74
2023/06/10 12:06:04;;;;;;;1.42;1.33;;;33.30;85.80;35.60;101328.00;;;;5028226;28;20183;-73
2023/06/10 12:08:30;;;;;;;0.63;0.63;;;32.70;86.10;36.70;101330.00;;;;5034279;28;20194;-73
2023/06/10 12:11:00;;;;;;;1.25;1.20;;;33.00;85.20;36.90;101288.00;;;;5033978;28;20179;-73
2023/06/10 12:13:32;;;;;;;2.72;2.35;;;33.10;86.30;35.90;101332.00;;;;5034083;28;20206;-73
2023/06/10 12:16:13;;;;;;;4.88;2.50;;;33.10;85.40;34.50;101330.00;;;;5033928;28;20206;-73
2023/06/10 12:19:04;;;;;;;1.35;1.25;;;32.60;84.30;36.10;101320.00;;;;5021067;28;20266;-73
2023/06/10 12:21:31;;;;;;;0.52;0.52;;;32.40;83.40;36.90;101286.00;;;;5034081;28;20218;-73
2023/06/10 12:24:10;;;;;;;0.93;0.93;;;32.80;84.40;36.40;101317.00;;;;5033871;28;20190;-73
2023/06/10 12:26:47;;;;;;;1.95;1.80;;;33.00;84.30;36.00;101287.00;;;;5018475;28;20183;-74
2023/06/10 12:29:25;;;;;;;2.05;1.55;;;32.70;83.10;35.20;101320.00;;;;5015951;28;20606;-73
2023/06/10 12:32:01;;;;;;;0.55;0.40;;;32.00;85.10;35.90;101300.00;;;;5016975;28;20221;-74
2023/06/10 12:34:38;;;;;;;2.38;1.58;;;32.20;84.70;36.30;101322.00;;;;5033156;28;20183;-74
2023/06/10 12:37:18;;;;;;;0.25;0.25;;;32.40;85.50;36.60;101319.00;;;;5034886;28;20217;-73
2023/06/10 12:40:09;;;;;;;1.48;1.15;;;32.50;84.90;35.50;101305.00;;;;5007962;28;20260;-73
2023/06/10 12:42:41;;;;;;;0.75;0.73;;;32.30;84.80;35.60;101307.00;;;;5031505;28;20175;-74
2023/06/10 12:45:46;;;;;;;2.63;1.45;;;32.10;84.40;34.70;101323.00;;;;5033723;28;20556;-73
2023/06/10 12:48:17;;;;;;;1.85;1.75;;;31.90;85.20;35.00;101316.00;;;;5058534;28;20198;-73
2023/06/10 12:50:52;;;;;;;0.50;0.50;;;31.90;85.10;35.40;101313.00;;;;5034598;28;20179;-73
2023/06/10 12:53:20;;;;;;;0.90;0.90;;;31.80;85.20;35.50;101303.00;;;;5032891;28;20198;-74
2023/06/10 12:55:57;;;;;;;3.55;2.22;;;31.90;85.80;34.80;101273.00;;;;5031780;28;20183;-73
2023/06/10 12:58:26;;;;;;;2.40;2.20;;;31.70;84.30;34.10;101294.00;;;;4998139;28;20649;-74
2023/06/10 13:00:59;;;;;;;0.20;0.20;;;31.50;84.10;35.30;101306.00;;;;5047499;28;20521;-73
2023/06/10 13:03:33;;;;;;;0.63;0.63;;;31.60;85.90;36.50;101308.00;;;;5033274;28;20210;-73
2023/06/10 13:06:02;;;;;;;7.00;2.47;;;32.30;85.90;35.50;101260.00;;;;5032588;28;20583;-73
2023/06/10 13:08:31;;;;;;;2.35;2.15;;;32.30;81.30;35.20;101308.00;;;;5034242;28;20171;-74
2023/06/10 13:10:57;;;;;;;2.05;1.85;;;32.00;81.20;35.90;101301.00;;;;5032867;28;20179;-74
2023/06/10 13:13:24;;;;;;;0.90;0.90;;;32.00;82.10;35.00;101298.00;;;;5033032;28;20185;-73
2023/06/10 13:15:50;;;;;;;0.25;0.25;;;32.00;81.50;35.30;101293.00;;;;5032372;28;20174;-73
2023/06/10 13:18:18;;;;;;;0.30;0.30;;;31.80;82.40;35.80;101295.00;;;;5015054;28;20823;-73
2023/06/10 13:20:44;;;;;;;2.20;1.77;;;32.00;83.60;34.20;101303.00;;;;5032660;28;20712;-73
2023/06/10 13:23:10;;;;;;;1.98;1.88;;;31.90;82.00;35.00;101310.00;;;;5016051;28;20274;-74
2023/06/10 13:25:36;;;;;;;1.88;1.30;;;31.70;82.10;35.80;101297.00;;;;5031566;28;20274;-74
2023/06/10 13:28:03;;;;;;;1.92;1.83;;;31.90;83.10;34.30;101303.00;;;;5032409;28;20250;-74
2023/06/10 13:30:38;;;;;;;1.80;1.05;;;31.50;83.20;34.80;101293.00;;;;5031388;28;20206;-74
2023/06/10 13:33:06;;;;;;;1.17;0.98;;;31.50;83.50;35.20;101264.00;;;;5028253;28;20621;-74
2023/06/10 13:36:26;;;;;;;1.42;1.33;;;31.60;83.00;34.30;101296.00;;;;5032897;28;20183;-70
2023/06/10 13:39:03;;;;;;;1.13;0.82;;;31.40;83.10;35.50;101280.00;;;;5023288;28;20652;-73
2023/06/10 13:41:32;;;;;;;2.13;1.92;;;31.70;82.70;35.90;101286.00;;;;5033327;28;20531;-73
2023/06/10 13:44:00;;;;;;;0.85;0.85;;;31.90;83.30;35.50;101272.00;;;;5031552;28;20229;-73
2023/06/10 13:46:28;;;;;;;3.00;1.63;;;32.00;83.60;35.50;101291.00;;;;5032548;28;20198;-73
2023/06/10 13:48:57;;;;;;;0.47;0.47;;;32.00;83.00;36.00;101247.00;;;;5014484;28;20194;-73
2023/06/10 13:51:24;;;;;;;0.25;0.25;;;32.10;82.70;36.00;101276.00;;;;5032586;28;20211;-73
2023/06/10 13:54:15;;;;;;;0.10;0.10;;;32.20;81.50;36.10;101266.00;;;;5032422;28;20179;-73
2023/06/10 13:56:49;;;;;;;1.27;0.95;;;32.40;82.00;36.30;101268.00;;;;5021807;28;20293;-73
2023/06/10 13:59:15;;;;;;;2.03;1.90;;;32.50;82.50;35.00;101287.00;;;;5015827;28;20186;-73
2023/06/10 14:01:42;;;;;;;1.48;1.38;;;32.00;82.80;34.70;101285.00;;;;5032387;28;20213;-72
2023/06/10 14:04:16;;;;;;;0.75;0.75;;;31.70;82.10;35.20;101274.00;;;;5031850;28;20179;-72
2023/06/10 14:06:48;;;;;;;1.30;1.17;;;31.90;82.40;35.10;101271.00;;;;5018793;28;20190;-73
2023/06/10 14:09:54;;;;;;;0.70;0.70;;;31.70;84.20;35.40;101265.00;;;;5031507;28;20183;-73
2023/06/10 14:12:29;;;;;;;1.40;1.30;;;31.70;82.30;35.20;101233.00;;;;5031678;28;20223;-73
2023/06/10 14:15:11;;;;;;;1.70;1.60;;;31.70;81.70;35.20;101271.00;;;;5030327;28;20683;-74
2023/06/10 14:17:40;;;;;;;0.47;0.47;;;31.60;82.00;35.30;101268.00;;;;5006138;28;20195;-72
2023/06/10 14:20:26;;;;;;;1.13;1.00;;;31.60;81.80;33.80;101226.00;;;;5031860;28;20186;-72
2023/06/10 14:23:00;;;;;;;0.70;0.70;;;31.20;81.40;35.60;101258.00;;;;5032137;28;20179;-73
2023/06/10 14:25:26;;;;;;;1.88;1.77;;;31.50;83.60;35.10;101258.00;;;;5031733;28;20183;-76
2023/06/10 14:27:57;;;;;;;0.40;0.40;;;31.60;81.90;34.40;101262.00;;;;5031964;28;20186;-72
2023/06/10 14:30:28;;;;;;;1.00;1.00;;;31.40;81.60;35.10;101264.00;;;;5015887;28;20179;-72
2023/06/10 14:32:54;;;;;;;1.38;0.77;;;31.50;83.00;35.10;101263.00;;;;5032165;28;20207;-73
2023/06/10 14:35:38;;;;;;;1.73;1.55;;;31.60;82.70;34.40;101275.00;;;;5031358;28;20774;-73
2023/06/10 14:38:11;;;;;;;2.35;2.08;;;31.50;83.00;34.70;101250.00;;;;5028366;28;20195;-72
2023/06/10 14:41:22;;;;;;;0.63;0.63;;;31.40;82.60;34.80;101269.00;;;;5048345;28;20558;-73
2023/06/10 14:43:56;;;;;;;1.85;1.75;;;31.30;82.80;34.50;101250.00;;;;5014385;28;20202;-72
2023/06/10 14:46:22;;;;;;;2.08;1.88;;;31.40;83.50;34.50;101274.00;;;;5031057;28;20182;-68
2023/06/10 14:48:50;;;;;;;2.63;1.20;;;31.20;82.50;35.60;101237.00;;;;5031320;28;20269;-69
2023/06/10 14:51:16;;;;;;;1.40;1.30;;;31.60;81.70;35.30;101261.00;;;;5032549;28;20182;-69
2023/06/10 14:53:42;;;;;;;2.17;2.08;;;31.60;81.60;35.00;101257.00;;;;5031662;28;20183;-68
2023/06/10 14:56:07;;;;;;;2.13;1.27;;;31.70;80.60;35.30;101252.00;;;;5030752;28;20189;-69
2023/06/10 14:58:33;;;;;;;2.10;1.90;;;31.70;80.60;35.30;101247.00;;;;5031056;28;20314;-68
2023/06/10 15:00:59;;;;;;;1.30;1.30;;;31.80;80.40;35.70;101230.00;;;;5015413;28;20183;-68
2023/06/10 15:03:25;;;;;;;1.52;1.27;;;31.90;81.70;35.50;101252.00;;;;5031015;28;20186;-68
2023/06/10 15:05:51;;;;;;;0.50;0.50;;;32.00;80.80;34.40;101243.00;;;;5031648;28;20361;-68
2023/06/10 15:08:17;;;;;;;1.52;1.42;;;31.50;81.40;35.30;101251.00;;;;5032475;28;20191;-68
2023/06/10 15:10:48;;;;;;;3.63;1.30;;;31.60;80.70;35.30;101245.00;;;;5032112;28;20184;-68
2023/06/10 15:13:14;;;;;;;1.75;1.55;;;31.70;82.20;35.00;101249.00;;;;5032637;28;20213;-68
2023/06/10 15:15:48;;;;;;;1.80;1.67;;;31.80;81.60;35.20;101238.00;;;;5031223;28;20183;-68
2023/06/10 15:18:19;;;;;;;0.90;0.50;;;31.70;81.70;35.60;101223.00;;;;5019501;28;20190;-68
2023/06/10 15:20:47;;;;;;;1.48;1.35;;;31.70;82.40;35.70;101246.00;;;;5021698;28;20182;-68
2023/06/10 15:23:22;;;;;;;2.60;1.73;;;31.80;81.60;33.70;101244.00;;;;5033057;28;20641;-68
2023/06/10 15:25:48;;;;;;;0.52;0.52;;;31.20;81.20;34.50;101239.00;;;;5034848;28;20541;-69
2023/06/10 15:28:14;;;;;;;0.95;0.95;;;31.10;81.70;35.10;101218.00;;;;5034970;28;20189;-68
2023/06/10 15:30:45;;;;;;;2.45;2.17;;;31.50;83.40;34.30;101256.00;;;;5051251;28;20268;-69
2023/06/10 15:33:11;;;;;;;0.43;0.43;;;31.40;81.30;35.10;101243.00;;;;5060425;28;20218;-69
2023/06/10 15:36:15;;;;;;;0.85;0.85;;;31.40;82.30;34.70;101235.00;;;;5035005;28;20724;-69
2023/06/10 15:39:07;;;;;;;0.50;0.32;;;31.20;80.80;35.10;101217.00;;;;5031984;28;20308;-69
2023/06/10 15:41:41;;;;;;;4.70;2.08;;;31.40;80.50;34.30;101254.00;;;;5034924;28;20182;-69
2023/06/10 15:44:07;;;;;;;2.08;1.92;;;31.40;80.70;34.40;101246.00;;;;5034848;28;20179;-69
2023/06/10 15:46:34;;;;;;;2.33;2.17;;;31.40;79.70;34.80;101243.00;;;;5035599;28;20569;-69
2023/06/10 15:49:00;;;;;;;1.70;1.55;;;31.30;80.60;34.00;101241.00;;;;5034810;28;20654;-69
2023/06/10 15:51:26;;;;;;;1.73;1.63;;;31.10;79.70;34.10;101251.00;;;;5032666;28;20285;-69
2023/06/10 15:53:52;;;;;;;0.52;0.52;;;30.90;79.70;34.70;101242.00;;;;5034407;28;20191;-69
2023/06/10 15:56:18;;;;;;;0.20;0.20;;;30.90;81.20;35.30;101231.00;;;;5033332;28;20179;-69
2023/06/10 15:58:48;;;;;;;0.40;0.40;;;31.10;80.30;34.90;101199.00;;;;5018277;28;20187;-69
2023/06/10 16:01:14;;;;;;;0.20;0.20;;;31.10;81.10;36.00;101218.00;;;;5033932;28;20186;-69
2023/06/10 16:03:41;;;;;;;1.42;0.98;;;31.40;81.60;35.30;101227.00;;;;5035743;28;20190;-69
2023/06/10 16:06:07;;;;;;;0.57;0.57;;;31.60;81.00;35.20;101204.00;;;;5033971;28;20187;-69
2023/06/10 16:08:34;;;;;;;0.85;0.85;;;31.50;80.10;35.10;101233.00;;;;5034194;28;20179;-69
2023/06/10 16:11:03;;;;;;;1.13;1.13;;;31.50;79.90;35.20;101238.00;;;;5033291;28;20555;-69
2023/06/10 16:13:37;;;;;;;0.20;0.20;;;31.50;79.60;35.50;101232.00;;;;5034079;28;20278;-70
2023/06/10 16:16:03;;;;;;;0.88;0.88;;;31.60;80.60;35.60;101191.00;;;;5033806;28;20175;-69
2023/06/10 16:18:29;;;;;;;2.25;2.15;;;31.60;80.20;35.20;101193.00;;;;5034193;28;20576;-69
2023/06/10 16:20:55;;;;;;;1.10;1.10;;;31.50;79.30;35.10;101194.00;;;;5034205;28;20229;-69
2023/06/10 16:23:28;;;;;;;4.13;1.90;;;31.50;80.10;34.60;101236.00;;;;5034345;28;20644;-69
2023/06/10 16:25:54;;;;;;;0.65;0.65;;;31.30;78.20;34.20;101226.00;;;;5033869;28;20187;-69
2023/06/10 16:28:20;;;;;;;0.45;0.35;;;31.20;79.20;34.80;101225.00;;;;5034501;28;20641;-69
2023/06/10 16:30:46;;;;;;;0.88;0.88;;;31.10;78.80;34.60;101226.00;;;;5032741;28;20214;-69
2023/06/10 16:33:21;;;;;;;0.52;0.50;;;31.20;79.30;35.50;101209.00;;;;5030252;28;20211;-69
2023/06/10 16:35:47;;;;;;;1.08;0.55;;;31.40;77.10;35.50;101208.00;;;;5065107;28;20178;-69
2023/06/10 16:38:13;;;;;;;0.43;0.43;;;31.50;76.60;34.30;101226.00;;;;5050266;28;20191;-69
2023/06/10 16:40:39;;;;;;;1.02;1.02;;;31.10;77.60;34.90;101191.00;;;;5035256;28;20202;-69
2023/06/10 16:43:14;;;;;;;0.90;0.60;;;31.20;78.70;35.60;101209.00;;;;5034779;28;20194;-69
2023/06/10 16:45:40;;;;;;;2.08;1.25;;;31.40;78.00;35.20;101209.00;;;;5033170;28;20232;-69
2023/06/10 16:48:13;;;;;;;0.75;0.70;;;31.40;78.10;35.50;101202.00;;;;5033380;28;20563;-69
2023/06/10 16:50:39;;;;;;;0.95;0.95;;;31.60;78.20;35.60;101212.00;;;;5033644;28;20683;-69
2023/06/10 16:53:15;;;;;;;0.20;0.20;;;31.50;77.70;35.50;101168.00;;;;5033291;28;20207;-69
2023/06/10 16:55:48;;;;;;;1.42;1.33;;;31.40;77.60;34.50;101188.00;;;;5016650;28;20210;-68
2023/06/10 16:58:14;;;;;;;1.13;0.88;;;31.30;78.30;34.60;101206.00;;;;5033541;28;20245;-69
2023/06/10 17:00:45;;;;;;;1.60;1.50;;;31.00;78.10;34.60;101225.00;;;;5032932;28;20630;-69
2023/06/10 17:03:12;;;;;;;2.60;1.48;;;31.00;77.80;34.20;101205.00;;;;5033919;28;20274;-69
2023/06/10 17:05:38;;;;;;;1.63;1.52;;;30.80;79.10;34.40;101208.00;;;;5016552;28;20175;-69
2023/06/10 17:08:04;;;;;;;0.75;0.75;;;30.80;78.50;34.20;101213.00;;;;5031190;28;20202;-69
2023/06/10 17:10:34;;;;;;;0.52;0.52;;;30.90;78.10;34.90;101176.00;;;;5033099;28;20231;-69
2023/06/10 17:13:08;;;;;;;0.57;0.57;;;30.90;78.50;34.40;101179.00;;;;5032826;28;20219;-69
2023/06/10 17:15:34;;;;;;;0.10;0.10;;;31.00;77.60;34.70;101208.00;;;;5033355;28;20214;-69
2023/06/10 17:18:00;;;;;;;0.30;0.30;;;31.00;78.30;35.20;101216.00;;;;5032915;28;20187;-69
2023/06/10 17:20:29;;;;;;;5.93;0.93;;;31.10;78.40;34.70;101216.00;;;;5032645;28;20190;-69
2023/06/10 17:22:55;;;;;;;0.15;0.15;;;31.10;77.50;35.20;101183.00;;;;5032509;28;20187;-69
2023/06/10 17:25:20;;;;;;;1.35;0.50;;;31.10;78.60;34.90;101214.00;;;;5034133;28;20187;-69
2023/06/10 17:27:49;;;;;;;0.93;0.88;;;31.10;79.20;33.90;101225.00;;;;5032449;28;20286;-68
2023/06/10 17:30:17;;;;;;;0.13;0.13;;;30.90;79.20;34.40;101217.00;;;;5032650;28;20194;-69
2023/06/10 17:32:43;;;;;;;0.55;0.55;;;30.80;79.50;34.40;101215.00;;;;5012714;28;20207;-68
2023/06/10 17:35:12;;;;;;;0.68;0.68;;;30.90;77.90;34.10;101209.00;;;;5032340;28;20748;-68
2023/06/10 17:37:47;;;;;;;0.10;0.10;;;30.70;78.30;35.10;101181.00;;;;5031636;28;20653;-68
2023/06/10 17:40:16;;;;;;;1.27;1.25;;;30.90;79.40;34.00;101236.00;;;;5032133;28;20174;-68
2023/06/10 17:43:17;;;;;;;1.90;1.65;;;30.80;78.60;34.40;101217.00;;;;5030475;28;20199;-68
2023/06/10 17:46:23;;;;;;;1.63;1.55;;;30.80;78.60;34.50;101216.00;;;;5026353;28;20195;-68
2023/06/10 17:49:15;;;;;;;0.47;0.47;;;30.80;78.90;33.80;101228.00;;;;5023133;28;20222;-68
2023/06/10 17:51:50;;;;;;;0.68;0.68;;;30.70;79.40;33.80;101241.00;;;;5026537;28;20837;-68
2023/06/10 17:54:18;;;;;;;0.20;0.20;;;30.40;80.10;34.10;101217.00;;;;5048828;28;20189;-68
2023/06/10 17:57:05;;;;;;;2.13;2.00;;;30.50;80.40;33.90;101235.00;;;;5032290;28;20179;-68
2023/06/10 17:59:31;;;;;;;0.50;0.17;;;30.40;79.80;34.30;101239.00;;;;5032278;28;20637;-68
2023/06/10 18:02:16;;;;;;;0.50;0.50;;;30.50;80.20;34.80;101229.00;;;;5033587;28;20197;-68
2023/06/10 18:04:48;;;;;;;0.10;0.10;;;30.60;80.50;34.30;101234.00;;;;5015502;28;20183;-68
2023/06/10 18:07:41;;;;;;;0.10;0.10;;;30.60;80.40;34.80;101207.00;;;;5021720;28;20542;-68
2023/06/10 18:11:05;;;;;;;0.10;0.10;;;30.60;80.40;34.40;101243.00;;;;5030553;28;20225;-68
2023/06/10 18:14:22;;;;;;;0.43;0.43;;;30.60;80.60;34.70;101241.00;;;;5036484;28;20344;-68
2023/06/10 18:17:25;;;;;;;0.10;0.10;;;30.80;80.20;34.90;101244.00;;;;5016190;28;20186;-68
2023/06/10 18:20:20;;;;;;;0.15;0.15;;;30.70;80.40;35.10;101245.00;;;;5031222;28;20554;-68
2023/06/10 18:23:29;;;;;;;0.20;0.20;;;30.80;80.30;34.80;101253.00;;;;5022698;28;20194;-68
2023/06/10 18:26:01;;;;;;;0.50;0.50;;;30.80;80.70;34.50;101260.00;;;;5025682;28;20322;-68
2023/06/10 18:28:29;;;;;;;1.38;1.30;;;30.70;80.80;34.00;101252.00;;;;5012767;28;20179;-68
2023/06/10 18:31:24;;;;;;;1.50;1.40;;;30.50;81.20;33.70;101262.00;;;;5062474;28;20512;-68